Terminal Aerodrome Forecast
Issued by NWS

Home | Current Version | Previous Version | Text Only | Print | Product List | Glossary On
Versions: 1 2 3 4 5 6 7 8 9 10 11 12 13 14 15 16 17 18
451
FTUS43 KILX 210119 AAA
TAFDEC
TAF AMD
KDEC 210119Z 2101/2124 18008KT P6SM BKN035
      TEMPO 2101/2103 FEW030 SCT250
     FM210300 17006KT P6SM BKN015 OVC030
     FM210500 19007KT 2SM -DZ BR OVC008
     FM210800 19008KT 1SM -DZ BR OVC003=

USA.gov is the U.S. government's official web portal to all federal, state and local government web resources and services.